logo
Search for airport 
image banner adimage banner adimage banner ad
image banner ad

ED1729 - Offenburg Kkrhs.

Located in Offenburg, Germany

ICAO - , IATA -

Data provided by Airmate  

General information

Coordinates: N48°28'35" E7°57'18"
Elevation is 603 feet MSL.
 
View others Airports in Baden-Württemberg

Operational data

Special qualification required
Current time UTC:
Current local time:
Weather at : EDTL - Lahr ( 15 km )
METAR: EDTL 161950Z AUTO 24004KT 1600 1000 R21/P2000D // SCT086/// 19/14 Q1018
TAF: TAF EDTL 161700Z 1618/1624 26009KT CAVOK BECMG 1619/1621 20004KT
View NOTAMs / SUP AIP / TFR affecting this airport [VIEW]
Communications frequencies: [VIEW]

Runways:

Airport contact information

Address: Offenburg Germany

Satellite view of ED1729